Ilheus Aeroporto, Brazil
Current Conditions -  °F | °C
As of 5:00 AM on Monday 24 Nov 2014 (Local Time) from SBIL Reporting Station
Rain Showers Rain Showers  
Wind Chill: 73°   Ceiling: Unl
Heat Index: 73°   Visibility: 5mi
Dew Point: 72°   Wind: 7mph
Humidity: 94%   Direction: 270°W
Pressure: 29.94"   Gusts: NA
Location:  14.82°S, 39.03°W
Report Text: SBIL 240800Z 27006KT 8000 VCSH SCT012 SCT025 23/22 Q1014
Loading
Personal Weather Stations






























Interactive Weather Map New forecast layout! Learn more

10-Day Weather Forecast

Advertisements
Track Severe Weather on mobile